メインページ
METAR-TAF:

METAR-TAF

空港 :

デトロイト, ミシガン州, アメリカ合衆国

緯度: 42-24-33N, 経度: 083-00-36W, 海抜: 191m

現時点の気象観測

当レポートは34分前の19:53(UTC)に作成
南/南西の風 7kt
気温 1°C
湿度 55%
気圧 1029 hPa
視程: 16.1km
高度6500ftの雲は散在している

METAR: KDET 071953Z 20007KT 10SM SCT065 01/M07 A3039 RMK AO2 SLP299 T00061072

時間: 15:27 (20:27 UTC)

予報

当レポートは3時間7分前の17:20(UTC)に作成
予報は07日の 18時(UTC)から 08日の 18時(UTC)まで有効
南/南西の風 5kt
視程: 10km
高度10000ftの曇り
08日の 0200時(UTC)から
の風 10kt
視程: 10km
高度20000ftの曇り
08日の 1400時(UTC)から
南西の風 13kt、最大20ktの突風を伴う
視程: 10km
高度1500ftの曇り

TAF: KDET 071720Z 0718/0818 20005KT P6SM OVC100 FM080200 18010KT P6SM OVC200 FM081400 22013G20KT P6SM OVC015

4,000以上の空港の気象観測と天気予報(METAR報とTAF報)

利用可能な観測所は地図上に黄色い丸と赤い丸で示す。

丸の上にカーソルを重ねると観測所名を参照できる。

次にクリックすると気象観測と天気予報を参照できる。

マップの切り替え:黒色「×」印の緑ボタンをクリックして拡大、「-」印の緑ボタンをクリックして縮小、緑色の三角印をクリックして隣りの地図に切り替え


METAR-TAF: